Time;durP1;ratioP1;P1;durP2;ratioP2;P2;SDS_P1;SDS_P2;PMS_P1;PMS_P2;Temp;Humidity;BMP_temperature;BMP_pressure;BME280_temperature;BME280_humidity;BME280_pressure;Samples;Min_cycle;Max_cycle;Signal;HPM_P1;HPM_P2
2023/04/09 00:00:07;;;;;;;40.20;22.70;;;;;;;;;;2040983;29;20035;-77
2023/04/09 00:01:27;;;;;;;38.40;21.65;;;;;;;;;;2033884;28;20020;-77
2023/04/09 00:02:48;;;;;;;36.13;20.55;;;;;;;;;;2038988;29;20043;-77
2023/04/09 00:04:09;;;;;;;34.47;21.20;;;;;;;;;;2039580;29;20554;-77
2023/04/09 00:05:30;;;;;;;37.90;20.30;;;;;;;;;;2038793;29;20055;-77
2023/04/09 00:06:51;;;;;;;34.42;20.65;;;;;;;;;;2042851;29;20042;-77
2023/04/09 00:08:12;;;;;;;37.38;21.50;;;;;;;;;;2041836;29;20031;-78
2023/04/09 00:09:33;;;;;;;35.10;22.00;;;;;;;;;;2039294;29;20439;-77
2023/04/09 00:10:54;;;;;;;39.45;22.17;;;;;;;;;;2038540;29;20039;-78
2023/04/09 00:12:15;;;;;;;39.80;23.00;;;;;;;;;;2031612;29;20025;-78
2023/04/09 00:13:36;;;;;;;36.15;21.63;;;;;;;;;;2039149;29;20032;-77
2023/04/09 00:14:57;;;;;;;36.47;21.20;;;;;;;;;;2038521;29;20035;-77
2023/04/09 00:16:17;;;;;;;43.78;22.83;;;;;;;;;;2032830;29;20033;-77
2023/04/09 00:17:38;;;;;;;40.50;22.15;;;;;;;;;;2038162;29;20039;-78
2023/04/09 00:18:59;;;;;;;38.55;21.65;;;;;;;;;;2039646;29;20040;-77
2023/04/09 00:20:20;;;;;;;41.05;23.13;;;;;;;;;;2039091;29;20047;-77
2023/04/09 00:21:41;;;;;;;39.83;23.48;;;;;;;;;;2042713;29;20494;-78
2023/04/09 00:23:02;;;;;;;40.10;23.35;;;;;;;;;;2029165;29;20041;-77
2023/04/09 00:24:23;;;;;;;38.78;21.35;;;;;;;;;;2030630;29;20111;-77
2023/04/09 00:25:44;;;;;;;40.78;22.10;;;;;;;;;;2039352;29;20503;-77
2023/04/09 00:27:05;;;;;;;41.40;24.10;;;;;;;;;;2040491;29;20047;-78
2023/04/09 00:28:26;;;;;;;39.55;21.95;;;;;;;;;;2034767;28;20496;-77
2023/04/09 00:29:47;;;;;;;44.28;22.67;;;;;;;;;;2038479;29;20040;-78
2023/04/09 00:31:08;;;;;;;44.05;23.15;;;;;;;;;;2042622;29;20051;-77
2023/04/09 00:32:29;;;;;;;40.22;21.17;;;;;;;;;;2039183;29;20436;-77
2023/04/09 00:33:50;;;;;;;46.47;24.77;;;;;;;;;;2041106;29;20416;-77
2023/04/09 00:35:11;;;;;;;40.90;23.30;;;;;;;;;;2038346;29;20048;-77
2023/04/09 00:36:32;;;;;;;44.20;23.27;;;;;;;;;;2045812;29;20031;-78
2023/04/09 00:37:52;;;;;;;43.00;23.30;;;;;;;;;;2034005;29;20518;-77
2023/04/09 00:39:13;;;;;;;41.42;21.35;;;;;;;;;;2033261;29;20032;-78
2023/04/09 00:40:34;;;;;;;38.17;21.63;;;;;;;;;;2037359;29;20139;-77
2023/04/09 00:42:01;;;;;;;45.50;23.83;;;;;;;;;;2035748;29;20444;-77
2023/04/09 00:43:22;;;;;;;41.45;22.98;;;;;;;;;;2033552;29;20037;-77
2023/04/09 00:44:43;;;;;;;42.50;23.77;;;;;;;;;;2036819;29;20027;-78
2023/04/09 00:46:04;;;;;;;46.40;24.40;;;;;;;;;;2042722;29;20404;-77
2023/04/09 00:47:27;;;;;;;42.53;22.88;;;;;;;;;;2037445;29;20035;-77
2023/04/09 00:48:48;;;;;;;41.25;21.77;;;;;;;;;;2040077;29;20428;-78
2023/04/09 00:50:09;;;;;;;42.60;23.00;;;;;;;;;;2039380;29;20102;-77
2023/04/09 00:51:30;;;;;;;44.78;23.05;;;;;;;;;;2045441;29;20403;-78
2023/04/09 00:52:51;;;;;;;42.27;22.43;;;;;;;;;;2029645;29;20484;-77
2023/04/09 00:54:12;;;;;;;45.20;24.48;;;;;;;;;;2032966;29;20411;-77
2023/04/09 00:55:33;;;;;;;44.75;24.00;;;;;;;;;;2033186;29;20038;-77
2023/04/09 00:56:55;;;;;;;43.08;23.15;;;;;;;;;;2039205;29;20063;-78
2023/04/09 00:58:16;;;;;;;;;;;;;;;;;;2040456;29;20034;-78
2023/04/09 00:59:37;;;;;;;42.40;23.08;;;;;;;;;;2041271;29;19907;-77
2023/04/09 01:00:58;;;;;;;42.60;21.75;;;;;;;;;;2041826;29;20032;-74
2023/04/09 01:02:19;;;;;;;42.22;23.80;;;;;;;;;;2037961;29;20040;-75
2023/04/09 01:04:58;;;;;;;44.30;22.13;;;;;;;;;;1130608;27;20047;-89
2023/04/09 01:08:33;;;;;;;41.70;22.33;;;;;;;;;;2042760;29;20042;-90
2023/04/09 01:10:16;;;;;;;45.25;21.95;;;;;;;;;;2034956;29;20569;-90
2023/04/09 01:11:40;;;;;;;39.05;21.63;;;;;;;;;;2048245;28;20019;-90
2023/04/09 01:13:30;;;;;;;;;;;;;;;;;;;;;
2023/04/09 01:14:53;;;;;;;38.10;21.52;;;;;;;;;;2034136;28;20127;-91
2023/04/09 01:16:16;;;;;;;41.80;21.42;;;;;;;;;;2041471;29;20027;-90
2023/04/09 01:17:36;;;;;;;;;;;;;;;;;;2023877;29;20431;-91
2023/04/09 01:19:15;;;;;;;;;;;;;;;;;;;;;
2023/04/09 01:20:38;;;;;;;41.35;22.40;;;;;;;;;;2039152;29;20033;-91
2023/04/09 01:22:06;;;;;;;47.15;22.85;;;;;;;;;;2029813;29;20057;-90
2023/04/09 01:23:57;;;;;;;39.75;20.33;;;;;;;;;;2034090;29;20051;-90
2023/04/09 01:31:49;;;;;;;42.67;21.88;;;;;;;;;;2004846;29;20034;-92
2023/04/09 01:35:26;;;;;;;40.17;22.77;;;;;;;;;;1998450;29;20031;-92
2023/04/09 01:40:28;;;;;;;43.60;22.67;;;;;;;;;;2004106;29;20034;-93
2023/04/09 01:46:03;;;;;;;44.72;24.80;;;;;;;;;;2031209;29;20040;-92
2023/04/09 01:48:03;;;;;;;46.28;24.90;;;;;;;;;;2032581;29;20032;-93
2023/04/09 01:49:24;;;;;;;49.03;26.35;;;;;;;;;;2037324;29;20117;-92
2023/04/09 01:51:19;;;;;;;48.92;24.23;;;;;;;;;;2034050;29;20039;-92
2023/04/09 01:58:32;;;;;;;49.33;25.38;;;;;;;;;;2004818;29;20037;-91
2023/04/09 02:08:33;;;;;;;;;;;;;;;;;;;;;
2023/04/09 02:10:32;;;;;;;51.20;26.90;;;;;;;;;;2002780;29;20071;-91
2023/04/09 02:14:29;;;;;;;;;;;;;;;;;;;;;
2023/04/09 02:19:50;;;;;;;54.42;25.33;;;;;;;;;;2028212;29;20067;-92
2023/04/09 02:21:32;;;;;;;62.22;26.30;;;;;;;;;;2015662;29;20025;-90
2023/04/09 02:29:10;;;;;;;;;;;;;;;;;;;;;
2023/04/09 02:40:23;;;;;;;62.38;26.15;;;;;;;;;;1980837;30;20491;-91
2023/04/09 02:41:50;;;;;;;59.92;26.83;;;;;;;;;;1973887;30;20048;-90
2023/04/09 02:45:13;;;;;;;54.15;27.98;;;;;;;;;;1969443;30;20039;-80
2023/04/09 02:50:43;;;;;;;58.53;27.35;;;;;;;;;;1977802;29;20146;-81
2023/04/09 02:52:48;;;;;;;53.35;26.02;;;;;;;;;;1971371;30;20436;-80
2023/04/09 02:58:23;;;;;;;67.78;28.50;;;;;;;;;;1968281;30;20039;-80
2023/04/09 02:59:54;;;;;;;54.75;25.42;;;;;;;;;;1972422;30;20039;-82
2023/04/09 03:01:40;;;;;;;56.80;27.25;;;;;;;;;;1968553;30;20032;-82
2023/04/09 03:03:07;;;;;;;62.00;29.08;;;;;;;;;;1974633;29;20088;-81
2023/04/09 03:06:57;;;;;;;;;;;;;;;;;;;;;
2023/04/09 03:08:43;;;;;;;57.17;26.40;;;;;;;;;;1964566;30;20035;-81
2023/04/09 03:10:55;;;;;;;;;;;;;;;;;;;;;
2023/04/09 03:13:09;;;;;;;59.00;28.80;;;;;;;;;;1994100;29;20698;-81
2023/04/09 03:17:15;;;;;;;125.28;42.47;;;;;;;;;;1982201;29;20083;-80
2023/04/09 03:23:21;;;;;;;66.32;28.95;;;;;;;;;;2005073;29;20022;-80
2023/04/09 03:26:48;;;;;;;86.55;32.15;;;;;;;;;;2015369;29;20671;-79
2023/04/09 03:30:25;;;;;;;;;;;;;;;;;;;;;
2023/04/09 03:34:11;;;;;;;64.78;27.90;;;;;;;;;;2004346;29;20056;-84
2023/04/09 03:35:35;;;;;;;61.22;28.50;;;;;;;;;;2010879;29;20406;-83
2023/04/09 03:38:59;;;;;;;63.45;30.50;;;;;;;;;;2008242;29;20038;-84
2023/04/09 03:40:48;;;;;;;62.65;27.73;;;;;;;;;;2006381;29;20033;-82
2023/04/09 03:42:44;;;;;;;;;;;;;;;;;;;;;
2023/04/09 03:44:44;;;;;;;56.65;26.92;;;;;;;;;;2001947;29;20158;-84
2023/04/09 03:48:33;;;;;;;55.13;26.60;;;;;;;;;;2006450;29;20042;-84
2023/04/09 03:50:09;;;;;;;60.40;28.23;;;;;;;;;;2015246;29;20093;-84
2023/04/09 03:55:19;;;;;;;53.63;26.27;;;;;;;;;;2009190;29;20707;-82
2023/04/09 03:56:40;;;;;;;61.10;27.00;;;;;;;;;;2001831;29;20502;-82
2023/04/09 04:00:00;;;;;;;64.03;27.50;;;;;;;;;;2008617;29;20424;-83
2023/04/09 04:01:28;;;;;;;57.08;25.17;;;;;;;;;;2015129;29;20488;-82
2023/04/09 04:03:08;;;;;;;57.85;26.25;;;;;;;;;;2002455;29;20167;-83
2023/04/09 04:04:41;;;;;;;55.17;26.55;;;;;;;;;;2016020;29;20025;-83
2023/04/09 04:06:06;;;;;;;57.83;27.52;;;;;;;;;;2008000;29;20041;-82
2023/04/09 04:07:55;;;;;;;;;;;;;;;;;;;;;
2023/04/09 04:09:34;;;;;;;60.67;27.55;;;;;;;;;;2007993;29;20025;-84
2023/04/09 04:11:04;;;;;;;63.13;26.83;;;;;;;;;;2007275;29;20082;-82
2023/04/09 04:12:25;;;;;;;53.85;26.63;;;;;;;;;;2037918;29;20091;-83
2023/04/09 04:14:09;;;;;;;62.13;27.13;;;;;;;;;;2016564;29;20465;-82
2023/04/09 04:16:04;;;;;;;52.42;26.85;;;;;;;;;;2031564;29;20021;-82
2023/04/09 04:17:39;;;;;;;;;;;;;;;;;;;;;
2023/04/09 04:19:12;;;;;;;56.08;25.08;;;;;;;;;;2015656;29;20033;-83
2023/04/09 04:21:16;;;;;;;56.22;24.80;;;;;;;;;;2016468;29;20025;-82
2023/04/09 04:22:41;;;;;;;55.13;24.52;;;;;;;;;;1992017;29;20067;-82
2023/04/09 04:24:11;;;;;;;57.17;25.08;;;;;;;;;;1994331;29;20561;-83
2023/04/09 04:27:53;;;;;;;52.33;22.73;;;;;;;;;;1992829;29;20067;-83
2023/04/09 04:29:57;;;;;;;56.58;23.38;;;;;;;;;;1994155;29;20038;-83
2023/04/09 04:31:40;;;;;;;;;;;;;;;;;;;;;
2023/04/09 04:33:04;;;;;;;47.88;23.42;;;;;;;;;;1991389;29;20046;-83
2023/04/09 04:35:10;;;;;;;;;;;;;;;;;;;;;
2023/04/09 04:37:04;;;;;;;51.33;23.38;;;;;;;;;;1980076;29;20048;-83
2023/04/09 04:38:28;;;;;;;52.17;23.40;;;;;;;;;;1991163;29;20567;-83
2023/04/09 04:39:54;;;;;;;58.45;23.90;;;;;;;;;;1971855;30;20480;-83
2023/04/09 04:41:37;;;;;;;54.20;24.90;;;;;;;;;;1991854;29;20042;-83
2023/04/09 04:43:19;;;;;;;50.28;23.00;;;;;;;;;;1985958;29;20038;-82
2023/04/09 04:44:55;;;;;;;54.10;23.67;;;;;;;;;;1998342;29;20110;-83
2023/04/09 04:46:34;;;;;;;54.78;25.20;;;;;;;;;;2014632;29;20029;-84
2023/04/09 04:48:04;;;;;;;104.43;33.55;;;;;;;;;;2015725;29;20121;-83
2023/04/09 04:49:35;;;;;;;;;;;;;;;;;;;;;
2023/04/09 04:51:12;;;;;;;54.90;24.53;;;;;;;;;;2009979;29;20045;-84
2023/04/09 04:53:03;;;;;;;52.05;24.25;;;;;;;;;;2014842;29;20987;-83
2023/04/09 04:56:42;;;;;;;49.75;23.92;;;;;;;;;;2015834;29;20033;-84
2023/04/09 04:58:29;;;;;;;61.55;25.42;;;;;;;;;;2013270;29;20093;-83
2023/04/09 05:00:15;;;;;;;57.67;23.98;;;;;;;;;;2006082;29;20489;-84
2023/04/09 05:03:45;;;;;;;53.38;22.77;;;;;;;;;;2009233;29;20129;-82
2023/04/09 05:05:09;;;;;;;57.25;24.13;;;;;;;;;;2014263;29;20094;-82
2023/04/09 05:06:52;;;;;;;50.72;23.50;;;;;;;;;;2003929;29;20050;-83
2023/04/09 05:08:23;;;;;;;;;;;;;;;;;;;;;
2023/04/09 05:12:07;;;;;;;45.10;22.83;;;;;;;;;;2012867;29;20100;-83
2023/04/09 05:13:28;;;;;;;55.40;25.27;;;;;;;;;;2007299;29;20041;-83
2023/04/09 05:14:57;;;;;;;65.85;28.63;;;;;;;;;;2024451;29;20036;-82
2023/04/09 05:16:44;;;;;;;52.90;25.95;;;;;;;;;;2035555;29;20036;-82
2023/04/09 05:18:24;;;;;;;54.45;24.90;;;;;;;;;;2030293;29;20487;-82
2023/04/09 05:22:12;;;;;;;48.05;22.52;;;;;;;;;;2027507;29;20559;-82
2023/04/09 05:23:59;;;;;;;;;;;;;;;;;;;;;
2023/04/09 05:26:01;;;;;;;52.38;23.90;;;;;;;;;;2014940;29;20536;-82
2023/04/09 05:35:22;;;;;;;55.08;23.83;;;;;;;;;;2009023;29;20026;-82
2023/04/09 05:36:49;;;;;;;52.88;23.25;;;;;;;;;;2014142;29;20113;-82
2023/04/09 05:38:15;;;;;;;50.95;22.42;;;;;;;;;;2010795;29;20037;-82
2023/04/09 05:39:45;;;;;;;55.92;23.15;;;;;;;;;;2012544;29;20049;-82
2023/04/09 05:41:37;;;;;;;;;;;;;;;;;;;;;
2023/04/09 05:43:08;;;;;;;;;;;;;;;;;;2012387;29;20037;-83
2023/04/09 05:44:58;;;;;;;50.88;22.70;;;;;;;;;;2017951;29;19941;-82
2023/04/09 05:48:25;;;;;;;47.80;22.50;;;;;;;;;;2014470;29;20028;-82
2023/04/09 05:50:04;;;;;;;52.90;25.13;;;;;;;;;;2022702;29;20037;-82
2023/04/09 05:51:25;;;;;;;53.10;24.42;;;;;;;;;;2025477;29;20028;-82
2023/04/09 05:53:08;;;;;;;54.30;25.50;;;;;;;;;;2033225;29;20091;-82
2023/04/09 05:54:44;;;;;;;51.60;25.25;;;;;;;;;;2034630;29;20447;-82
2023/04/09 05:56:39;;;;;;;;;;;;;;;;;;;;;
2023/04/09 06:02:15;;;;;;;53.70;25.42;;;;;;;;;;2035246;29;20016;-82
2023/04/09 06:03:58;;;;;;;52.58;23.92;;;;;;;;;;2027180;29;20561;-82
2023/04/09 06:09:08;;;;;;;50.78;22.58;;;;;;;;;;2028555;29;20060;-83
2023/04/09 06:12:20;;;;;;;66.45;26.45;;;;;;;;;;2030646;28;20480;-84
2023/04/09 06:14:35;;;;;;;;;;;;;;;;;;;;;
2023/04/09 06:16:36;;;;;;;52.35;25.63;;;;;;;;;;2020616;29;20037;-84
2023/04/09 06:18:02;;;;;;;51.80;23.92;;;;;;;;;;2013341;29;20414;-84
2023/04/09 06:19:34;;;;;;;72.82;27.27;;;;;;;;;;2015152;29;20045;-84
2023/04/09 06:21:24;;;;;;;48.23;23.53;;;;;;;;;;2012062;29;20092;-84
2023/04/09 06:24:50;;;;;;;55.50;25.00;;;;;;;;;;2020582;29;20041;-84
2023/04/09 06:26:35;;;;;;;52.90;25.10;;;;;;;;;;2013788;29;20493;-84
2023/04/09 06:28:04;;;;;;;51.88;23.70;;;;;;;;;;2032798;29;20179;-83
2023/04/09 06:31:45;;;;;;;52.17;25.08;;;;;;;;;;2014243;29;20037;-84
2023/04/09 06:33:16;;;;;;;55.42;24.67;;;;;;;;;;2009101;29;20046;-83
2023/04/09 06:34:56;;;;;;;60.50;26.83;;;;;;;;;;2004412;29;20419;-83
2023/04/09 06:36:26;;;;;;;60.28;27.77;;;;;;;;;;2023227;29;20029;-82
2023/04/09 06:38:20;;;;;;;57.60;25.85;;;;;;;;;;2029145;29;20032;-82
2023/04/09 06:39:44;;;;;;;92.05;33.47;;;;;;;;;;2023234;29;20052;-84
2023/04/09 06:41:14;;;;;;;50.05;25.70;;;;;;;;;;2027283;29;20603;-82
2023/04/09 06:43:05;;;;;;;54.95;25.83;;;;;;;;;;2022367;29;20037;-84
2023/04/09 06:46:35;;;;;;;60.25;26.70;;;;;;;;;;2032709;29;20046;-82
2023/04/09 06:48:02;;;;;;;58.25;26.20;;;;;;;;;;2024897;29;20044;-83
2023/04/09 06:51:45;;;;;;;58.45;28.15;;;;;;;;;;2031057;29;20079;-82
2023/04/09 06:53:16;;;;;;;53.95;25.67;;;;;;;;;;2027742;29;20028;-82
2023/04/09 06:59:09;;;;;;;62.47;28.30;;;;;;;;;;2013330;29;20604;-83
2023/04/09 07:01:01;;;;;;;70.93;27.10;;;;;;;;;;2002048;29;20042;-82
2023/04/09 07:04:27;;;;;;;55.33;25.90;;;;;;;;;;2014741;29;20041;-83
2023/04/09 07:10:06;;;;;;;;;;;;;;;;;;;;;
2023/04/09 07:11:27;;;;;;;49.63;23.77;;;;;;;;;;2016052;29;20041;-83
2023/04/09 07:12:51;;;;;;;45.50;22.67;;;;;;;;;;2011098;29;20040;-82
2023/04/09 07:20:10;;;;;;;53.80;22.88;;;;;;;;;;2013405;29;20041;-83
2023/04/09 07:22:02;;;;;;;54.08;25.52;;;;;;;;;;2015713;29;20033;-83
2023/04/09 07:25:34;;;;;;;65.90;27.35;;;;;;;;;;1997220;29;20610;-83
2023/04/09 07:29:08;;;;;;;53.53;25.77;;;;;;;;;;2003930;29;20030;-83
2023/04/09 07:30:55;;;;;;;50.95;26.70;;;;;;;;;;1993477;29;20113;-83
2023/04/09 07:38:28;;;;;;;57.63;27.80;;;;;;;;;;1992947;29;20106;-84
2023/04/09 07:43:40;;;;;;;60.35;29.23;;;;;;;;;;1996733;29;20480;-82
2023/04/09 07:45:35;;;;;;;58.35;28.10;;;;;;;;;;1997069;29;20038;-82
2023/04/09 07:47:14;;;;;;;57.55;26.88;;;;;;;;;;1986545;29;20035;-82
2023/04/09 07:48:59;;;;;;;56.97;26.23;;;;;;;;;;1996608;29;20039;-82
2023/04/09 07:50:26;;;;;;;73.40;28.88;;;;;;;;;;2003142;29;20494;-82
2023/04/09 07:52:03;;;;;;;;;;;;;;;;;;;;;
2023/04/09 07:56:00;;;;;;;51.17;24.85;;;;;;;;;;1954359;29;20038;-83
2023/04/09 08:01:39;;;;;;;56.47;28.80;;;;;;;;;;1953695;30;20056;-82
2023/04/09 08:05:28;;;;;;;;;;;;;;;;;;;;;
2023/04/09 08:06:50;;;;;;;55.95;27.60;;;;;;;;;;1974151;29;20100;-82
2023/04/09 08:08:49;;;;;;;47.55;24.77;;;;;;;;;;1986172;29;20406;-82
2023/04/09 08:10:44;;;;;;;54.85;26.55;;;;;;;;;;1979483;29;20583;-83
2023/04/09 08:14:03;;;;;;;49.17;26.60;;;;;;;;;;1981913;29;20055;-82
2023/04/09 08:19:55;;;;;;;50.40;26.45;;;;;;;;;;1964239;29;20040;-83
2023/04/09 08:21:25;;;;;;;74.05;29.73;;;;;;;;;;1968057;29;20034;-83
2023/04/09 08:25:21;;;;;;;63.47;29.17;;;;;;;;;;1990922;29;20051;-83
2023/04/09 08:31:08;;;;;;;53.47;26.23;;;;;;;;;;1994450;29;20030;-84
2023/04/09 08:33:02;;;;;;;50.47;25.48;;;;;;;;;;2008350;29;20470;-84
2023/04/09 08:34:40;;;;;;;51.60;27.30;;;;;;;;;;1984712;29;20522;-84
2023/04/09 08:36:26;;;;;;;54.85;26.27;;;;;;;;;;1982460;29;20035;-83
2023/04/09 08:39:54;;;;;;;54.60;25.05;;;;;;;;;;1965459;30;20586;-84
2023/04/09 08:41:39;;;;;;;47.92;27.40;;;;;;;;;;1976876;29;20035;-83
2023/04/09 08:43:33;;;;;;;58.58;27.15;;;;;;;;;;1962056;30;20113;-83
2023/04/09 08:47:13;;;;;;;46.45;25.65;;;;;;;;;;1979241;29;20116;-84
2023/04/09 08:50:55;;;;;;;49.25;26.67;;;;;;;;;;1978898;30;20067;-83
2023/04/09 08:52:44;;;;;;;51.55;27.17;;;;;;;;;;2008294;29;20081;-83
2023/04/09 08:54:16;;;;;;;53.20;27.58;;;;;;;;;;2007441;29;20045;-83
2023/04/09 08:57:57;;;;;;;44.47;23.92;;;;;;;;;;2006835;29;20429;-83
2023/04/09 08:59:37;;;;;;;;;;;;;;;;;;;;;
2023/04/09 09:01:05;;;;;;;53.10;29.10;;;;;;;;;;2014938;29;20029;-84
2023/04/09 09:02:27;;;;;;;60.03;28.70;;;;;;;;;;1991986;29;20050;-83
2023/04/09 09:03:56;;;;;;;50.67;25.58;;;;;;;;;;2015674;29;20359;-83
2023/04/09 09:05:49;;;;;;;;;;;;;;;;;;;;;
2023/04/09 09:07:39;;;;;;;;;;;;;;;;;;;;;
2023/04/09 09:11:24;;;;;;;47.38;24.73;;;;;;;;;;2038333;29;20020;-84
2023/04/09 09:13:07;;;;;;;46.55;25.85;;;;;;;;;;2037709;28;20071;-83
2023/04/09 09:16:44;;;;;;;48.55;26.35;;;;;;;;;;2040032;29;20039;-82
2023/04/09 09:18:14;;;;;;;48.85;26.02;;;;;;;;;;2021623;29;20037;-84
2023/04/09 09:20:13;;;;;;;45.05;25.77;;;;;;;;;;2040392;29;20032;-86
2023/04/09 09:25:45;;;;;;;46.47;26.02;;;;;;;;;;2024388;29;20044;-85
2023/04/09 09:29:12;;;;;;;;;;;;;;;;;;;;;
2023/04/09 09:30:39;;;;;;;44.42;24.90;;;;;;;;;;2040852;29;19910;-83
2023/04/09 09:32:12;;;;;;;47.85;26.83;;;;;;;;;;2038844;29;20044;-83
2023/04/09 09:33:33;;;;;;;49.42;26.25;;;;;;;;;;2031823;29;20060;-83
2023/04/09 09:34:58;;;;;;;45.58;25.60;;;;;;;;;;2033177;29;20389;-83
2023/04/09 09:36:52;;;;;;;49.10;27.02;;;;;;;;;;2027124;29;20032;-83
2023/04/09 09:39:08;;;;;;;40.47;22.58;;;;;;;;;;2026140;29;20551;-81
2023/04/09 09:42:40;;;;;;;43.50;24.83;;;;;;;;;;1999076;29;20034;-81
2023/04/09 09:44:43;;;;;;;53.17;27.63;;;;;;;;;;1990887;29;20042;-81
2023/04/09 09:46:17;;;;;;;48.03;27.42;;;;;;;;;;1997595;29;20587;-81
2023/04/09 09:49:30;;;;;;;52.58;26.80;;;;;;;;;;1993375;29;20518;-81
2023/04/09 09:50:51;;;;;;;51.63;27.40;;;;;;;;;;1991840;29;20111;-81
2023/04/09 09:52:26;;;;;;;40.25;23.80;;;;;;;;;;2021801;29;20481;-79
2023/04/09 09:53:59;;;;;;;41.67;23.67;;;;;;;;;;2012543;29;20040;-80
2023/04/09 09:55:26;;;;;;;46.80;26.50;;;;;;;;;;2038387;29;20027;-80
2023/04/09 09:56:54;;;;;;;45.67;24.63;;;;;;;;;;2030926;29;20032;-83
2023/04/09 09:58:21;;;;;;;46.20;26.35;;;;;;;;;;2027388;29;20033;-83
2023/04/09 10:00:57;;;;;;;;;;;;;;;;;;;;;
2023/04/09 10:02:33;;;;;;;;;;;;;;;;;;;;;
2023/04/09 10:04:05;;;;;;;39.60;21.55;;;;;;;;;;2006172;29;20052;-83
2023/04/09 10:05:35;;;;;;;57.55;27.50;;;;;;;;;;2012674;29;20144;-83
2023/04/09 10:06:56;;;;;;;44.22;26.13;;;;;;;;;;2015147;29;20048;-82
2023/04/09 10:08:39;;;;;;;40.60;24.15;;;;;;;;;;2014167;29;20045;-82
2023/04/09 10:11:56;;;;;;;43.30;24.40;;;;;;;;;;2017868;29;19912;-82
2023/04/09 10:13:36;;;;;;;74.20;31.55;;;;;;;;;;2013833;29;20029;-82
2023/04/09 10:17:20;;;;;;;;;;;;;;;;;;;;;
2023/04/09 10:19:31;;;;;;;39.90;22.52;;;;;;;;;;2015694;29;20052;-82
2023/04/09 10:29:44;;;;;;;;;;;;;;;;;;;;;
2023/04/09 10:34:02;;;;;;;;;;;;;;;;;;;;;
2023/04/09 10:40:01;;;;;;;30.30;17.55;;;;;;;;;;2003779;29;20026;-82
2023/04/09 10:43:24;;;;;;;;;;;;;;;;;;;;;
2023/04/09 10:47:16;;;;;;;37.47;17.52;;;;;;;;;;2035416;29;20105;-82
2023/04/09 10:49:01;;;;;;;30.27;16.25;;;;;;;;;;2026559;29;20033;-83
2023/04/09 10:56:39;;;;;;;27.95;14.60;;;;;;;;;;2022302;29;20089;-84
2023/04/09 11:05:51;;;;;;;23.65;13.55;;;;;;;;;;2019039;29;20033;-82
2023/04/09 11:07:22;;;;;;;24.77;14.50;;;;;;;;;;2030533;29;20028;-83
2023/04/09 11:09:02;;;;;;;;;;;;;;;;;;;;;
2023/04/09 11:10:35;;;;;;;23.55;13.82;;;;;;;;;;2056266;28;20627;-82
2023/04/09 11:12:33;;;;;;;24.27;13.02;;;;;;;;;;2049831;28;20046;-83
2023/04/09 11:13:46;;;;;;;25.35;14.60;;;;;;;;;;2056608;28;20039;-83
2023/04/09 11:15:15;;;;;;;23.25;12.80;;;;;;;;;;2035596;28;20426;-83
2023/04/09 11:17:05;;;;;;;21.73;11.65;;;;;;;;;;2059057;28;20036;-83
2023/04/09 11:18:43;;;;;;;19.65;10.68;;;;;;;;;;2040464;29;20023;-83
2023/04/09 11:20:09;;;;;;;23.13;11.23;;;;;;;;;;2046761;29;20042;-83
2023/04/09 11:21:47;;;;;;;20.80;11.88;;;;;;;;;;2047299;29;20019;-83
2023/04/09 11:23:09;;;;;;;20.20;10.90;;;;;;;;;;2047808;29;20035;-83
2023/04/09 11:24:55;;;;;;;22.48;12.15;;;;;;;;;;2047344;29;20043;-83
2023/04/09 11:26:30;;;;;;;19.40;11.02;;;;;;;;;;2047859;29;20031;-83
2023/04/09 11:28:09;;;;;;;18.77;10.45;;;;;;;;;;2046617;29;20031;-82
2023/04/09 11:29:33;;;;;;;15.43;10.18;;;;;;;;;;2049434;29;20038;-82
2023/04/09 11:31:23;;;;;;;23.17;11.65;;;;;;;;;;2046915;29;20035;-82
2023/04/09 11:36:00;;;;;;;25.13;13.38;;;;;;;;;;2019360;29;20028;-84
2023/04/09 11:38:01;;;;;;;21.42;12.52;;;;;;;;;;2020067;29;20020;-83
2023/04/09 11:39:25;;;;;;;21.65;12.52;;;;;;;;;;2022685;29;20519;-82
2023/04/09 11:40:50;;;;;;;20.67;12.10;;;;;;;;;;2000513;29;20038;-83
2023/04/09 11:42:43;;;;;;;24.17;13.80;;;;;;;;;;2004784;29;20157;-82
2023/04/09 11:44:09;;;;;;;23.45;12.70;;;;;;;;;;2016187;29;20497;-84
2023/04/09 11:45:37;;;;;;;22.73;13.45;;;;;;;;;;2007390;29;20477;-83
2023/04/09 11:46:59;;;;;;;18.13;11.98;;;;;;;;;;2025137;29;20039;-81
2023/04/09 11:48:23;;;;;;;15.75;10.60;;;;;;;;;;2025049;29;20036;-81
2023/04/09 11:49:47;;;;;;;17.65;11.57;;;;;;;;;;2022780;29;20421;-82
2023/04/09 11:51:11;;;;;;;19.67;10.80;;;;;;;;;;2022927;29;20038;-82
2023/04/09 11:52:34;;;;;;;17.58;10.10;;;;;;;;;;2036319;29;20030;-82
2023/04/09 11:54:03;;;;;;;17.70;10.90;;;;;;;;;;2027342;29;20048;-82
2023/04/09 11:55:24;;;;;;;19.10;11.18;;;;;;;;;;2026901;29;20066;-82
2023/04/09 11:56:48;;;;;;;18.35;10.98;;;;;;;;;;2025843;29;20393;-82
2023/04/09 11:58:12;;;;;;;20.63;12.25;;;;;;;;;;2024138;29;20039;-82
2023/04/09 11:59:37;;;;;;;19.38;10.65;;;;;;;;;;2020989;29;20044;-82
2023/04/09 12:00:58;;;;;;;16.33;10.45;;;;;;;;;;2031895;29;20043;-82
2023/04/09 12:02:19;;;;;;;17.02;10.57;;;;;;;;;;2028183;29;20477;-83
2023/04/09 12:04:22;;;;;;;19.67;11.05;;;;;;;;;;2040228;29;20028;-83
2023/04/09 12:05:54;;;;;;;23.23;11.48;;;;;;;;;;2034845;29;20065;-82
2023/04/09 12:07:32;;;;;;;23.85;11.85;;;;;;;;;;2030979;29;20036;-82
2023/04/09 12:15:55;;;;;;;38.92;15.73;;;;;;;;;;2001254;29;20033;-82
2023/04/09 12:17:38;;;;;;;16.52;9.82;;;;;;;;;;2002237;29;20041;-82
2023/04/09 12:19:21;;;;;;;15.45;9.98;;;;;;;;;;2012548;29;20511;-83
2023/04/09 12:21:06;;;;;;;18.70;10.57;;;;;;;;;;2007730;29;20061;-82
2023/04/09 12:24:57;;;;;;;16.95;10.15;;;;;;;;;;2042152;29;20028;-82
2023/04/09 12:26:24;;;;;;;16.15;11.18;;;;;;;;;;2021985;29;20044;-83
2023/04/09 12:28:17;;;;;;;16.42;9.98;;;;;;;;;;2041614;29;20389;-83
2023/04/09 12:31:49;;;;;;;18.58;9.60;;;;;;;;;;2013370;29;20029;-83
2023/04/09 12:35:14;;;;;;;14.50;9.05;;;;;;;;;;2042448;29;20381;-83
2023/04/09 12:36:50;;;;;;;13.32;9.05;;;;;;;;;;2034512;29;20087;-83
2023/04/09 12:42:04;;;;;;;17.83;11.30;;;;;;;;;;2039277;29;20039;-80
2023/04/09 12:43:28;;;;;;;14.25;9.70;;;;;;;;;;2033638;29;20040;-81
2023/04/09 12:44:49;;;;;;;15.00;9.25;;;;;;;;;;2025885;29;20037;-81
2023/04/09 12:46:31;;;;;;;13.85;8.95;;;;;;;;;;2025507;29;20049;-82
2023/04/09 12:48:01;;;;;;;17.70;10.18;;;;;;;;;;2026062;29;20116;-82
2023/04/09 12:49:25;;;;;;;14.98;8.77;;;;;;;;;;2032366;29;20029;-82
2023/04/09 12:50:58;;;;;;;13.45;8.70;;;;;;;;;;2030452;29;20028;-82
2023/04/09 12:52:23;;;;;;;15.40;9.85;;;;;;;;;;2037032;29;20039;-82
2023/04/09 12:54:10;;;;;;;16.85;10.05;;;;;;;;;;2034051;29;20029;-82
2023/04/09 12:55:32;;;;;;;16.50;9.70;;;;;;;;;;2033363;29;20032;-81
2023/04/09 12:57:05;;;;;;;18.83;11.52;;;;;;;;;;2030345;29;20040;-81
2023/04/09 12:58:26;;;;;;;;;;;;;;;;;;2032535;29;20032;-81
2023/04/09 12:59:56;;;;;;;13.68;9.73;;;;;;;;;;2039076;29;20283;-81
2023/04/09 13:01:17;;;;;;;13.60;9.63;;;;;;;;;;2033685;29;20032;-79
2023/04/09 13:02:55;;;;;;;13.32;9.10;;;;;;;;;;2027148;29;20388;-80
2023/04/09 13:04:24;;;;;;;18.00;10.05;;;;;;;;;;2046013;29;20040;-80
2023/04/09 13:05:52;;;;;;;17.80;10.18;;;;;;;;;;2037642;29;20036;-81
2023/04/09 13:07:17;;;;;;;13.50;9.40;;;;;;;;;;2038536;29;20040;-80
2023/04/09 13:09:12;;;;;;;;;;;;;;;;;;;;;
2023/04/09 13:10:38;;;;;;;15.20;10.63;;;;;;;;;;2032893;29;21005;-82
2023/04/09 13:12:01;;;;;;;;;;;;;;;;;;2031504;29;20047;-82
2023/04/09 13:13:29;;;;;;;18.77;10.45;;;;;;;;;;2030700;29;20287;-82
2023/04/09 13:14:58;;;;;;;12.57;9.10;;;;;;;;;;2024748;29;20029;-82
2023/04/09 13:16:27;;;;;;;15.68;9.18;;;;;;;;;;2023893;29;20035;-82
2023/04/09 13:18:00;;;;;;;12.68;8.38;;;;;;;;;;2023900;29;20028;-82
2023/04/09 13:19:30;;;;;;;15.05;8.90;;;;;;;;;;2032468;29;20427;-82
2023/04/09 13:21:11;;;;;;;13.63;8.88;;;;;;;;;;2034442;29;20047;-83
2023/04/09 13:22:39;;;;;;;15.90;9.20;;;;;;;;;;2031103;29;20399;-82
2023/04/09 13:26:15;;;;;;;18.10;10.45;;;;;;;;;;1999923;29;20113;-82
2023/04/09 13:28:50;;;;;;;16.35;10.23;;;;;;;;;;2007215;29;20072;-83
2023/04/09 13:30:18;;;;;;;15.82;8.93;;;;;;;;;;2024322;29;20277;-80
2023/04/09 13:31:39;;;;;;;17.55;10.63;;;;;;;;;;2031850;29;20534;-82
2023/04/09 13:33:11;;;;;;;19.50;10.90;;;;;;;;;;2031112;29;20435;-81
2023/04/09 13:34:33;;;;;;;19.85;11.25;;;;;;;;;;2031016;29;20448;-80
2023/04/09 13:36:00;;;;;;;;;;;;;;;;;;2031261;29;20111;-81
2023/04/09 13:39:38;;;;;;;16.70;10.52;;;;;;;;;;2025568;29;20083;-80
2023/04/09 13:41:45;;;;;;;;;;;;;;;;;;;;;
2023/04/09 13:45:22;;;;;;;15.30;9.38;;;;;;;;;;2023201;29;20036;-81
2023/04/09 13:46:49;;;;;;;35.67;14.48;;;;;;;;;;2027270;28;20039;-80
2023/04/09 13:52:30;;;;;;;18.88;10.85;;;;;;;;;;2030709;29;20020;-82
2023/04/09 13:53:57;;;;;;;16.20;9.65;;;;;;;;;;2031680;29;20031;-81
2023/04/09 13:55:38;;;;;;;16.73;9.75;;;;;;;;;;2032092;29;20032;-81
2023/04/09 13:57:05;;;;;;;14.10;10.18;;;;;;;;;;2020772;29;20072;-83
2023/04/09 13:58:29;;;;;;;17.13;10.27;;;;;;;;;;2030180;29;20036;-80
2023/04/09 13:59:53;;;;;;;16.10;9.82;;;;;;;;;;2026561;29;20035;-81
2023/04/09 14:01:32;;;;;;;15.30;9.00;;;;;;;;;;2032865;29;20036;-80